Time;durP1;ratioP1;P1;durP2;ratioP2;P2;SDS_P1;SDS_P2;PMS_P1;PMS_P2;Temp;Humidity;BMP_temperature;BMP_pressure;BME280_temperature;BME280_humidity;BME280_pressure;Samples;Min_cycle;Max_cycle;Signal;HPM_P1;HPM_P2
2022/08/08 00:02:10;;;;;;;6.82;6.18;;;;;;;19.88;65.21;94879.19;5109994;28;20460;-80
2022/08/08 00:04:40;;;;;;;7.30;5.82;;;;;;;19.90;64.83;94879.84;5076480;28;20029;-79
2022/08/08 00:07:16;;;;;;;6.60;5.90;;;;;;;19.87;65.62;94881.00;5076749;28;20043;-79
2022/08/08 00:09:53;;;;;;;6.65;6.05;;;;;;;19.83;65.46;94882.38;5098210;28;20059;-80
2022/08/08 00:12:20;;;;;;;6.50;5.90;;;;;;;19.62;64.79;94852.25;5114682;28;20353;-80
2022/08/08 00:15:03;;;;;;;9.98;6.82;;;;;;;19.62;65.29;94862.81;5079454;28;20126;-79
2022/08/08 00:17:34;;;;;;;7.00;6.30;;;;;;;19.69;64.87;94891.09;5080518;28;20024;-80
2022/08/08 00:20:05;;;;;;;8.05;6.32;;;;;;;19.63;66.07;94892.59;5113096;28;20107;-79
2022/08/08 00:22:41;;;;;;;6.85;6.25;;;;;;;19.61;65.97;94882.25;5113384;28;20031;-80
2022/08/08 00:25:31;;;;;;;7.85;6.10;;;;;;;19.72;65.56;94891.53;5096123;28;20034;-79
2022/08/08 00:27:58;;;;;;;7.22;6.28;;;;;;;19.36;66.60;94888.75;5113351;28;20078;-79
2022/08/08 00:30:25;;;;;;;7.82;6.50;;;;;;;18.86;66.86;94843.63;5113063;28;20040;-79
2022/08/08 00:32:51;;;;;;;9.02;6.03;;;;;;;19.22;67.48;94895.63;5112350;28;20089;-80
2022/08/08 00:35:34;;;;;;;7.40;6.70;;;;;;;19.30;67.03;94900.81;5112420;28;20035;-79
2022/08/08 00:38:12;;;;;;;7.35;6.65;;;;;;;19.23;66.99;94899.09;5129752;27;20032;-80
2022/08/08 00:40:41;;;;;;;6.85;6.15;;;;;;;19.24;67.38;94906.00;5114099;28;20051;-79
2022/08/08 00:43:37;;;;;;;7.00;6.38;;;;;;;19.14;67.62;94906.25;5114179;28;20024;-79
2022/08/08 00:46:20;;;;;;;6.90;6.20;;;;;;;19.09;67.99;94901.50;5129610;27;20067;-79
2022/08/08 00:49:13;;;;;;;6.90;6.30;;;;;;;19.15;67.58;94899.97;5112435;28;20039;-79
2022/08/08 00:51:44;;;;;;;7.60;6.57;;;;;;;19.15;67.31;94899.97;5113873;28;20460;-79
2022/08/08 00:54:51;;;;;;;7.47;6.45;;;;;;;19.07;67.65;94910.56;5113339;28;20501;-79
2022/08/08 00:57:54;;;;;;;7.15;6.50;;;;;;;18.99;67.92;94900.91;5095598;28;20063;-79
2022/08/08 01:00:26;;;;;;;8.30;6.40;;;;;;;18.89;67.98;94881.94;5113422;28;20039;-79
2022/08/08 01:03:10;;;;;;;7.35;6.65;;;;;;;19.08;67.26;94907.75;5096121;28;20081;-79
2022/08/08 01:06:09;;;;;;;7.40;6.70;;;;;;;19.03;67.47;94910.13;5113897;28;20109;-79
2022/08/08 01:08:47;;;;;;;7.45;6.75;;;;;;;18.96;67.55;94904.72;5129402;27;20032;-79
2022/08/08 01:11:30;;;;;;;9.55;7.32;;;;;;;19.02;67.60;94908.47;5112464;27;20032;-79
2022/08/08 01:14:02;;;;;;;7.82;6.72;;;;;;;19.07;67.17;94905.31;5093212;28;20036;-79
2022/08/08 01:16:36;;;;;;;7.78;7.03;;;;;;;19.06;67.47;94912.38;5092959;28;20032;-79
2022/08/08 01:19:35;;;;;;;9.63;7.10;;;;;;;19.05;67.48;94908.09;5108986;28;20032;-79
2022/08/08 01:22:00;;;;;;;7.80;7.07;;;;;;;18.80;68.33;94915.34;5093135;28;20520;-80
2022/08/08 01:25:11;;;;;;;8.35;6.90;;;;;;;18.66;68.98;94909.00;5092861;28;20036;-79
2022/08/08 01:28:10;;;;;;;7.57;6.88;;;;;;;18.52;69.36;94915.00;5090667;28;20460;-79
2022/08/08 01:31:06;;;;;;;8.32;7.47;;;;;;;18.37;69.97;94919.38;5092741;28;20031;-79
2022/08/08 01:33:46;;;;;;;8.30;7.50;;;;;;;18.06;70.82;94910.47;5092500;28;20502;-79
2022/08/08 01:36:24;;;;;;;9.23;8.32;;;;;;;18.17;71.62;94940.03;5075792;28;20036;-79
2022/08/08 01:39:18;;;;;;;10.35;9.13;;;;;;;18.07;72.13;94932.31;5092533;28;20043;-79
2022/08/08 01:42:00;;;;;;;9.63;8.68;;;;;;;18.20;71.78;94939.69;5076605;28;20028;-79
2022/08/08 01:44:31;;;;;;;9.60;8.70;;;;;;;18.31;71.29;94945.38;5090168;28;20032;-79
2022/08/08 01:47:09;;;;;;;8.90;8.00;;;;;;;18.24;70.76;94920.75;5092678;28;20451;-79
2022/08/08 01:49:59;;;;;;;8.70;7.80;;;;;;;18.29;70.91;94930.75;5075012;28;20044;-79
2022/08/08 01:52:28;;;;;;;8.75;7.85;;;;;;;18.16;71.20;94936.56;5108181;28;20045;-79
2022/08/08 01:55:15;;;;;;;8.57;7.68;;;;;;;17.94;71.62;94934.66;5092094;28;20522;-79
2022/08/08 01:57:47;;;;;;;8.48;7.68;;;;;;;18.05;71.50;94934.28;5092563;28;20074;-79
2022/08/08 02:00:21;;;;;;;8.98;8.07;;;;;;;18.10;71.14;94929.34;5092152;28;20071;-79
2022/08/08 02:03:14;;;;;;;8.52;7.72;;;;;;;18.01;71.44;94933.00;5092389;28;20026;-79
2022/08/08 02:05:50;;;;;;;8.57;7.78;;;;;;;17.90;71.48;94910.53;5091842;28;20486;-79
2022/08/08 02:08:35;;;;;;;8.20;7.47;;;;;;;17.99;71.39;94919.22;5090694;28;20032;-79
2022/08/08 02:11:06;;;;;;;8.23;7.43;;;;;;;17.93;71.52;94904.94;5105678;28;20524;-79
2022/08/08 02:13:34;;;;;;;;;;;;;;;18.01;71.87;94930.38;5111481;28;20489;-79
2022/08/08 02:16:15;;;;;;;8.52;7.32;;;;;;;17.85;72.17;94921.53;5128332;27;19912;-79
2022/08/08 02:19:02;;;;;;;9.18;7.97;;;;;;;18.08;71.72;94928.72;5095026;28;20035;-79
2022/08/08 02:24:50;;;;;;;8.52;7.78;;;;;;;18.27;70.87;94930.91;5076124;28;20058;-79
2022/08/08 02:27:17;;;;;;;8.18;7.38;;;;;;;18.35;70.25;94926.63;5110890;28;20034;-79
2022/08/08 02:29:58;;;;;;;8.90;8.10;;;;;;;18.36;70.09;94933.50;5111734;28;20088;-79
2022/08/08 02:32:46;;;;;;;9.07;7.70;;;;;;;18.43;70.43;94934.47;5111962;28;20074;-79
2022/08/08 02:35:25;;;;;;;8.65;7.80;;;;;;;18.48;69.84;94932.97;5110301;28;20039;-79
2022/08/08 02:38:28;;;;;;;8.82;8.02;;;;;;;18.49;70.00;94934.59;5094866;28;20065;-79
2022/08/08 02:41:31;;;;;;;8.63;7.82;;;;;;;18.59;70.06;94937.00;5128179;27;20138;-79
2022/08/08 02:44:27;;;;;;;9.48;8.52;;;;;;;18.61;69.68;94935.03;5111882;28;20504;-79
2022/08/08 02:47:23;;;;;;;8.18;7.38;;;;;;;18.79;69.50;94939.22;5127915;27;20070;-80
2022/08/08 02:50:10;;;;;;;8.38;7.55;;;;;;;18.82;69.16;94933.63;5112156;28;20031;-79
2022/08/08 02:52:54;;;;;;;8.48;7.68;;;;;;;18.73;68.88;94924.94;5111920;28;20058;-81
2022/08/08 02:55:38;;;;;;;8.75;7.95;;;;;;;18.85;68.57;94928.00;5095034;28;20067;-79
2022/08/08 02:58:19;;;;;;;10.20;7.43;;;;;;;18.76;68.62;94932.50;5127809;28;20038;-80
2022/08/08 03:01:22;;;;;;;8.43;7.63;;;;;;;18.79;68.69;94939.22;5111724;28;20520;-79
2022/08/08 03:04:18;;;;;;;9.05;7.57;;;;;;;18.80;68.68;94938.22;5111399;28;20032;-80
2022/08/08 03:07:11;;;;;;;8.25;7.47;;;;;;;18.92;68.46;94942.94;5111615;28;20028;-79
2022/08/08 03:09:58;;;;;;;8.10;7.30;;;;;;;18.89;68.45;94939.84;5108106;28;20095;-79
2022/08/08 03:12:51;;;;;;;7.95;7.15;;;;;;;18.83;68.78;94941.31;5091361;28;20115;-80
2022/08/08 03:15:28;;;;;;;8.25;7.38;;;;;;;18.86;69.02;94938.38;5090741;28;20039;-79
2022/08/08 03:17:56;;;;;;;8.13;7.03;;;;;;;18.84;69.16;94942.97;5090969;28;20115;-79
2022/08/08 03:20:22;;;;;;;8.98;8.07;;;;;;;18.83;69.37;94935.25;5106960;28;20371;-80
2022/08/08 03:22:51;;;;;;;8.43;7.70;;;;;;;18.87;68.96;94947.09;5091134;28;20398;-79
2022/08/08 03:25:20;;;;;;;9.23;8.30;;;;;;;18.82;68.60;94942.31;5073251;28;20286;-80
2022/08/08 03:28:06;;;;;;;8.75;7.85;;;;;;;18.82;68.70;94946.78;5072837;28;20028;-80
2022/08/08 03:30:32;;;;;;;9.05;8.18;;;;;;;18.85;68.78;94944.59;5072763;28;20032;-80
2022/08/08 03:35:41;;;;;;;9.07;8.18;;;;;;;18.25;69.80;94896.13;5089997;28;20039;-79
2022/08/08 03:38:07;;;;;;;9.00;8.10;;;;;;;18.76;69.02;94958.81;5091266;28;20020;-79
2022/08/08 03:40:33;;;;;;;9.90;8.93;;;;;;;18.38;70.12;94963.09;5090872;28;20570;-79
2022/08/08 03:42:59;;;;;;;10.48;8.85;;;;;;;18.20;70.51;94951.00;5091208;28;20028;-79
2022/08/08 03:45:25;;;;;;;9.43;8.52;;;;;;;18.28;70.75;94964.13;5072674;28;20036;-79
2022/08/08 03:47:57;;;;;;;9.15;8.25;;;;;;;18.32;70.96;94964.59;5091038;28;20085;-79
2022/08/08 03:50:24;;;;;;;9.35;8.10;;;;;;;18.18;70.22;94918.81;5089447;28;20047;-79
2022/08/08 03:52:49;;;;;;;10.25;8.57;;;;;;;18.04;70.37;94899.31;5090213;28;20016;-79
2022/08/08 03:55:16;;;;;;;10.18;8.07;;;;;;;18.41;70.25;94966.19;5089913;28;20205;-79
2022/08/08 03:57:46;;;;;;;8.98;8.18;;;;;;;17.81;71.36;94920.25;5089411;28;20470;-80
2022/08/08 04:00:13;;;;;;;8.80;7.97;;;;;;;18.21;70.56;94951.81;5090753;28;20071;-79
2022/08/08 04:02:38;;;;;;;8.80;8.00;;;;;;;18.20;70.80;94965.97;5089086;28;20059;-79
2022/08/08 04:05:04;;;;;;;9.18;8.38;;;;;;;17.49;71.99;94909.78;5072413;28;20116;-79
2022/08/08 04:07:39;;;;;;;12.80;8.50;;;;;;;17.91;72.13;94980.50;5073220;28;20039;-79
2022/08/08 04:10:07;;;;;;;8.98;7.97;;;;;;;17.98;71.85;94978.03;5093663;28;20024;-79
2022/08/08 04:12:33;;;;;;;8.90;8.10;;;;;;;18.03;72.08;94971.28;5109737;28;20475;-79
2022/08/08 04:14:59;;;;;;;8.68;7.60;;;;;;;17.96;71.86;94982.63;5075915;28;20024;-79
2022/08/08 04:17:24;;;;;;;8.98;8.13;;;;;;;17.87;72.26;94976.56;5076113;28;20054;-79
2022/08/08 04:19:50;;;;;;;9.07;8.20;;;;;;;18.11;70.98;94914.41;5075985;28;20036;-79
2022/08/08 04:22:15;;;;;;;8.30;7.50;;;;;;;20.48;64.22;94976.53;5092645;28;20028;-79
2022/08/08 04:24:41;;;;;;;8.15;7.28;;;;;;;21.03;61.42;94981.44;5075916;28;20032;-79
2022/08/08 04:27:06;;;;;;;7.93;7.13;;;;;;;19.63;65.20;94947.94;5094099;28;20031;-79
2022/08/08 04:29:32;;;;;;;8.55;7.75;;;;;;;20.51;62.69;94939.22;5093868;28;20035;-79
2022/08/08 04:31:57;;;;;;;8.05;7.22;;;;;;;21.99;58.40;94976.59;5092578;28;20043;-79
2022/08/08 04:34:23;;;;;;;7.47;6.78;;;;;;;21.98;58.67;94988.16;5093935;28;20032;-79
2022/08/08 04:36:48;;;;;;;7.70;7.00;;;;;;;21.14;61.50;94991.50;5092441;28;20036;-79
2022/08/08 04:39:13;;;;;;;8.13;7.32;;;;;;;21.07;61.32;94982.72;5092046;28;20540;-79
2022/08/08 04:41:39;;;;;;;9.80;7.63;;;;;;;22.12;58.51;94976.69;5091628;28;20046;-79
2022/08/08 04:44:05;;;;;;;7.57;6.88;;;;;;;24.53;51.85;94959.13;5093604;28;20035;-79
2022/08/08 04:46:31;;;;;;;7.70;6.88;;;;;;;28.27;42.51;94987.00;5074911;28;20035;-80
2022/08/08 04:48:57;;;;;;;7.40;6.72;;;;;;;30.65;37.14;94981.13;5092314;28;20043;-80
2022/08/08 04:51:22;;;;;;;7.38;6.63;;;;;;;32.02;33.93;94938.81;5093414;28;20024;-80
2022/08/08 04:53:48;;;;;;;7.78;6.97;;;;;;;33.04;31.77;94940.41;5101295;28;20043;-80
2022/08/08 04:56:15;;;;;;;7.90;7.20;;;;;;;33.49;30.37;94938.88;5086156;28;20085;-80
2022/08/08 04:58:41;;;;;;;9.55;8.13;;;;;;;33.54;30.71;94973.91;5075454;28;20032;-80
2022/08/08 05:01:07;;;;;;;9.27;7.93;;;;;;;34.56;28.98;94984.69;5093043;28;20034;-80
2022/08/08 05:03:32;;;;;;;9.00;7.85;;;;;;;35.43;27.22;94941.13;5091230;28;20032;-81
2022/08/08 05:05:58;;;;;;;8.98;8.15;;;;;;;36.40;26.40;94996.34;5093247;28;20024;-81
2022/08/08 05:08:25;;;;;;;9.85;7.70;;;;;;;36.34;25.89;94944.22;5089800;28;20055;-81
2022/08/08 05:10:51;;;;;;;8.25;7.45;;;;;;;35.85;26.63;94950.56;5082358;28;20020;-80
2022/08/08 05:13:17;;;;;;;8.05;7.25;;;;;;;31.43;33.79;94991.72;5088702;28;20040;-80
2022/08/08 05:15:42;;;;;;;9.80;7.05;;;;;;;29.02;38.44;94957.81;5085698;28;20028;-80
2022/08/08 05:18:08;;;;;;;7.97;7.18;;;;;;;28.17;39.88;94962.75;5083824;28;20453;-80
2022/08/08 05:20:33;;;;;;;8.57;7.47;;;;;;;27.09;42.43;94951.25;5090103;28;20054;-80
2022/08/08 05:22:59;;;;;;;9.20;8.13;;;;;;;27.15;42.98;94998.34;5099310;28;20496;-80
2022/08/08 05:25:24;;;;;;;10.90;7.97;;;;;;;26.67;43.43;94956.53;5111242;28;20076;-80
2022/08/08 05:27:50;;;;;;;11.25;7.60;;;;;;;26.47;44.13;94953.25;5110963;28;20106;-80
2022/08/08 05:30:16;;;;;;;8.88;7.97;;;;;;;26.42;44.28;94969.09;5112878;28;20024;-80
2022/08/08 05:32:41;;;;;;;8.40;7.43;;;;;;;26.19;46.13;94967.09;5108042;28;20559;-81
2022/08/08 05:35:07;;;;;;;8.30;7.50;;;;;;;26.05;46.51;94964.53;5088699;28;20078;-80
2022/08/08 05:37:35;;;;;;;9.65;7.80;;;;;;;26.33;45.78;94963.25;5089042;28;20490;-80
2022/08/08 05:40:03;;;;;;;8.60;7.38;;;;;;;26.74;45.51;95007.91;5090149;28;20036;-81
2022/08/08 05:42:36;;;;;;;9.70;8.70;;;;;;;26.63;45.50;95007.78;5106456;27;20119;-81
2022/08/08 05:45:02;;;;;;;10.80;7.97;;;;;;;26.50;45.44;94984.78;5090612;28;20430;-80
2022/08/08 05:47:28;;;;;;;9.98;8.60;;;;;;;26.65;45.12;95011.88;5088847;28;20039;-81
2022/08/08 05:49:53;;;;;;;14.18;9.05;;;;;;;26.44;46.60;95014.94;5082745;28;20454;-80
2022/08/08 05:52:19;;;;;;;13.40;9.40;;;;;;;26.00;46.92;95011.47;5090776;28;20038;-81
2022/08/08 05:54:44;;;;;;;10.23;8.77;;;;;;;26.19;47.65;95007.00;5097309;28;20566;-81
2022/08/08 05:57:16;;;;;;;13.23;9.05;;;;;;;26.29;46.57;95000.13;5101262;28;20031;-81
2022/08/08 05:59:42;;;;;;;12.50;8.75;;;;;;;26.32;47.16;95012.19;5095489;28;20235;-80
2022/08/08 06:05:11;;;;;;;9.23;8.25;;;;;;;26.14;46.50;94993.53;5090594;28;20063;-81
2022/08/08 06:07:40;;;;;;;10.00;8.05;;;;;;;26.49;47.12;95017.75;5071716;28;20024;-81
2022/08/08 06:10:08;;;;;;;10.00;7.72;;;;;;;26.55;47.88;95014.25;5090689;28;20032;-83
2022/08/08 06:12:35;;;;;;;8.50;7.70;;;;;;;26.40;46.58;94981.81;5072301;28;20481;-82
2022/08/08 06:15:01;;;;;;;8.30;7.50;;;;;;;26.66;46.18;95000.19;5071937;28;20032;-83
2022/08/08 06:17:26;;;;;;;10.93;7.70;;;;;;;26.85;45.88;95013.50;5083699;28;20032;-81
2022/08/08 06:19:52;;;;;;;9.25;7.53;;;;;;;26.86;45.04;95015.13;5088355;28;21262;-81
2022/08/08 06:22:17;;;;;;;10.30;7.90;;;;;;;26.52;45.84;95004.03;5091718;28;20429;-80
2022/08/08 06:24:42;;;;;;;8.45;7.55;;;;;;;26.70;45.77;95025.34;5081426;28;20499;-80
2022/08/08 06:27:09;;;;;;;8.98;6.97;;;;;;;26.64;45.83;95012.91;5082821;28;20489;-80
2022/08/08 06:29:38;;;;;;;8.35;7.55;;;;;;;26.70;45.79;95025.34;5076128;28;20036;-80
2022/08/08 06:32:04;;;;;;;8.57;7.65;;;;;;;26.59;45.27;94994.13;5060619;28;20027;-81
2022/08/08 06:34:35;;;;;;;11.55;7.47;;;;;;;26.78;44.95;95023.44;5061838;28;20037;-80
2022/08/08 06:37:01;;;;;;;10.77;8.20;;;;;;;26.59;45.84;95031.41;5095900;28;20057;-80
2022/08/08 06:39:26;;;;;;;8.50;7.70;;;;;;;26.61;45.88;95029.34;5058886;28;20037;-81
2022/08/08 06:41:56;;;;;;;8.27;7.43;;;;;;;26.65;45.89;95025.19;5078841;28;20031;-81
2022/08/08 06:44:23;;;;;;;10.70;7.57;;;;;;;26.55;46.48;95027.56;5074008;28;20490;-80
2022/08/08 06:46:48;;;;;;;7.97;7.10;;;;;;;26.60;46.64;95033.03;5066901;28;20575;-80
2022/08/08 06:49:14;;;;;;;8.13;7.18;;;;;;;26.77;47.06;95025.25;5088354;28;20027;-80
2022/08/08 06:51:39;;;;;;;7.72;6.93;;;;;;;26.97;46.28;95022.38;5096405;28;20032;-80
2022/08/08 06:54:04;;;;;;;9.75;7.40;;;;;;;27.15;45.62;95024.19;5075183;28;20343;-80
2022/08/08 06:56:30;;;;;;;8.60;7.75;;;;;;;27.25;45.21;95027.19;5110428;28;20035;-80
2022/08/08 06:58:56;;;;;;;8.57;7.15;;;;;;;27.27;45.31;95014.41;5073477;28;20073;-81
2022/08/08 07:01:25;;;;;;;9.95;7.18;;;;;;;27.44;44.18;95027.09;5069720;28;20039;-80
2022/08/08 07:04:13;;;;;;;8.95;6.95;;;;;;;27.44;43.31;95001.25;5079795;28;20028;-82
2022/08/08 07:06:42;;;;;;;11.90;7.20;;;;;;;27.61;43.59;95018.25;5064658;28;20028;-80
2022/08/08 07:09:19;;;;;;;9.07;7.35;;;;;;;27.54;43.35;94990.03;5089293;28;20036;-80
2022/08/08 07:11:47;;;;;;;8.05;7.25;;;;;;;27.46;43.34;94971.69;5072704;28;20032;-80
2022/08/08 07:14:16;;;;;;;11.07;7.18;;;;;;;27.92;43.20;95021.69;5088244;28;20036;-83
2022/08/08 07:16:51;;;;;;;8.55;6.07;;;;;;;27.87;41.08;94989.56;5084382;28;20036;-82
2022/08/08 07:19:29;;;;;;;7.78;6.13;;;;;;;27.78;40.41;95017.59;5083999;28;20119;-82
2022/08/08 07:21:56;;;;;;;6.32;5.60;;;;;;;27.63;41.35;94983.31;5086722;28;20114;-82
2022/08/08 07:24:29;;;;;;;7.65;6.20;;;;;;;28.04;40.51;95027.84;5088468;28;20540;-82
2022/08/08 07:26:54;;;;;;;10.35;5.72;;;;;;;27.89;40.13;94981.28;5069491;28;20679;-82
2022/08/08 07:29:20;;;;;;;8.05;5.65;;;;;;;28.20;39.21;95013.03;5087307;28;20052;-82
2022/08/08 07:31:46;;;;;;;8.00;5.93;;;;;;;28.37;39.18;95026.47;5082909;28;20090;-82
2022/08/08 07:34:11;;;;;;;8.90;5.55;;;;;;;28.43;39.28;95028.25;5089253;28;20032;-82
2022/08/08 07:36:37;;;;;;;7.07;5.43;;;;;;;28.40;38.64;95034.03;5080798;28;20032;-82
2022/08/08 07:39:02;;;;;;;7.57;5.88;;;;;;;28.55;38.70;95030.91;5089713;28;20028;-82
2022/08/08 07:41:28;;;;;;;6.70;4.78;;;;;;;28.39;37.25;94992.34;5083524;28;20036;-82
2022/08/08 07:43:55;;;;;;;6.13;4.85;;;;;;;28.51;36.38;95022.56;5092743;28;20047;-82
2022/08/08 07:46:20;;;;;;;4.97;4.47;;;;;;;28.29;36.80;95011.63;5074851;28;20056;-82
2022/08/08 07:48:45;;;;;;;6.72;5.07;;;;;;;28.33;36.89;95013.81;5092978;28;20067;-82
2022/08/08 07:51:11;;;;;;;6.72;4.68;;;;;;;28.01;36.37;95017.66;5094180;28;20027;-82
2022/08/08 07:53:52;;;;;;;6.60;5.00;;;;;;;27.60;38.00;95011.25;5092943;28;20048;-82
2022/08/08 07:56:19;;;;;;;7.15;4.60;;;;;;;27.57;37.74;94970.91;5074799;28;20337;-82
2022/08/08 07:58:44;;;;;;;5.28;4.78;;;;;;;28.10;37.73;95017.31;5093314;28;20512;-82
2022/08/08 08:01:16;;;;;;;6.60;4.88;;;;;;;28.20;37.43;95004.19;5074276;28;20020;-82
2022/08/08 08:03:57;;;;;;;5.95;5.07;;;;;;;28.34;37.45;95015.47;5091254;28;20066;-82
2022/08/08 08:06:22;;;;;;;7.00;5.50;;;;;;;28.60;37.84;95011.50;5092135;28;20379;-82
2022/08/08 08:08:53;;;;;;;8.85;5.32;;;;;;;28.79;36.93;95007.63;5073877;28;20023;-82
2022/08/08 08:11:20;;;;;;;5.65;4.60;;;;;;;28.61;36.72;94971.22;5091810;28;20493;-82
2022/08/08 08:13:57;;;;;;;7.50;5.00;;;;;;;28.95;36.16;95012.25;5090792;28;20077;-82
2022/08/08 08:16:25;;;;;;;5.88;4.10;;;;;;;28.57;35.21;94961.22;5091774;28;20043;-82
2022/08/08 08:19:04;;;;;;;8.25;4.13;;;;;;;28.76;35.35;94985.94;5107650;28;20051;-82
2022/08/08 08:21:34;;;;;;;6.97;4.15;;;;;;;29.04;35.33;95010.03;5091040;28;20100;-82
2022/08/08 08:23:59;;;;;;;6.70;4.53;;;;;;;28.94;35.08;94967.84;5092357;28;20409;-82
2022/08/08 08:26:25;;;;;;;8.70;4.85;;;;;;;29.28;35.53;95005.44;5093370;28;20036;-82
2022/08/08 08:28:50;;;;;;;6.80;4.28;;;;;;;29.21;34.98;94967.31;5092353;28;20028;-82
2022/08/08 08:31:16;;;;;;;7.00;4.00;;;;;;;29.29;34.41;94952.75;5091980;28;20043;-82
2022/08/08 08:33:41;;;;;;;8.50;4.03;;;;;;;29.37;33.93;94947.81;5093151;28;20028;-82
2022/08/08 08:36:08;;;;;;;6.45;4.20;;;;;;;29.54;33.62;94944.34;5093466;28;20481;-82
2022/08/08 08:38:34;;;;;;;5.95;4.10;;;;;;;29.58;32.63;94945.47;5093287;28;20032;-82
2022/08/08 08:40:59;;;;;;;5.97;4.32;;;;;;;29.92;33.08;94991.00;5092959;28;20084;-82
2022/08/08 08:43:25;;;;;;;5.13;4.00;;;;;;;29.78;33.33;94953.88;5093246;28;20027;-82
2022/08/08 08:45:50;;;;;;;10.18;4.15;;;;;;;29.71;32.99;94944.38;5091852;28;20024;-81
2022/08/08 08:48:16;;;;;;;5.40;3.90;;;;;;;29.99;32.32;94957.66;5091688;28;20112;-82
2022/08/08 08:50:43;;;;;;;6.28;3.67;;;;;;;29.71;31.54;94944.38;5092623;28;20439;-81
2022/08/08 08:53:09;;;;;;;5.25;4.07;;;;;;;29.73;31.62;94975.19;5092851;28;20051;-81
2022/08/08 08:55:37;;;;;;;6.32;4.00;;;;;;;29.58;32.98;94945.47;5093148;28;20028;-82
2022/08/08 08:58:02;;;;;;;4.82;4.18;;;;;;;29.76;33.31;94941.78;5091797;28;20052;-82
2022/08/08 09:00:28;;;;;;;4.30;3.90;;;;;;;30.04;33.08;94976.50;5091607;28;20434;-82
2022/08/08 09:02:54;;;;;;;7.28;4.28;;;;;;;30.04;33.32;94970.31;5091488;28;20063;-83
2022/08/08 09:05:19;;;;;;;6.25;3.97;;;;;;;30.06;32.58;94969.03;5093127;28;20016;-81
2022/08/08 09:07:45;;;;;;;9.13;4.70;;;;;;;29.81;33.23;94921.25;5092810;28;20032;-83
2022/08/08 09:10:12;;;;;;;7.60;4.32;;;;;;;30.06;33.75;94968.19;5091494;28;20112;-83
2022/08/08 09:12:38;;;;;;;4.78;4.15;;;;;;;30.06;33.70;94968.19;5091532;28;20476;-83
2022/08/08 09:15:04;;;;;;;5.70;3.83;;;;;;;30.03;32.21;94964.16;5074349;28;20020;-82
2022/08/08 09:17:30;;;;;;;6.53;3.70;;;;;;;29.59;32.26;94910.44;5091641;28;20104;-82
2022/08/08 09:19:56;;;;;;;6.72;3.97;;;;;;;29.60;31.52;94962.91;5091332;28;20485;-82
2022/08/08 09:22:22;;;;;;;4.13;3.35;;;;;;;29.47;31.64;94927.63;5091272;28;20036;-82
2022/08/08 09:24:51;;;;;;;5.82;3.72;;;;;;;29.48;31.95;94919.38;5091371;28;20387;-80
2022/08/08 09:27:17;;;;;;;4.93;3.40;;;;;;;29.60;30.84;94944.16;5091538;28;20036;-82
2022/08/08 09:30:02;;;;;;;6.50;3.47;;;;;;;29.06;32.58;94956.31;5091181;28;20437;-82
2022/08/08 09:32:41;;;;;;;7.60;3.78;;;;;;;28.81;33.12;94917.34;5091182;28;20119;-82
2022/08/08 09:35:13;;;;;;;4.95;3.63;;;;;;;28.92;32.44;94908.47;5092428;28;20035;-82
2022/08/08 09:37:45;;;;;;;4.15;3.75;;;;;;;28.98;33.29;94897.88;5091110;28;20110;-82
2022/08/08 09:40:13;;;;;;;6.57;3.60;;;;;;;29.25;33.29;94909.59;5092128;28;20391;-83
2022/08/08 09:43:08;;;;;;;6.38;4.03;;;;;;;29.42;31.71;94908.81;5092314;28;20034;-82
2022/08/08 09:45:43;;;;;;;7.55;4.03;;;;;;;29.77;32.93;94932.69;5037596;28;20041;-83
2022/08/08 09:48:08;;;;;;;4.55;3.75;;;;;;;29.81;31.81;94923.09;5092337;28;20085;-82
2022/08/08 09:50:34;;;;;;;5.28;4.13;;;;;;;29.80;31.48;94884.03;5091835;28;20435;-81
2022/08/08 09:53:01;;;;;;;8.27;4.50;;;;;;;30.08;31.66;94912.53;5092093;28;20055;-83
2022/08/08 09:55:29;;;;;;;9.30;4.80;;;;;;;30.22;30.99;94916.50;5090814;28;20032;-83
2022/08/08 09:58:13;;;;;;;5.53;3.50;;;;;;;30.28;31.23;94909.34;5091978;28;20039;-83
2022/08/08 10:00:39;;;;;;;6.45;3.25;;;;;;;30.31;31.22;94882.06;5090753;28;20032;-83
2022/08/08 10:03:04;;;;;;;5.10;3.35;;;;;;;30.41;30.42;94882.19;5090427;28;20492;-83
2022/08/08 10:05:34;;;;;;;4.88;3.38;;;;;;;30.34;30.44;94862.00;5089341;28;20405;-80
2022/08/08 10:07:59;;;;;;;3.10;2.67;;;;;;;30.17;29.37;94865.53;5091892;28;20122;-83
2022/08/08 10:10:31;;;;;;;6.03;2.75;;;;;;;30.50;28.81;94909.34;5091686;28;20042;-82
2022/08/08 10:12:57;;;;;;;4.90;2.72;;;;;;;30.51;28.81;94905.63;5090186;28;20421;-82
2022/08/08 10:15:24;;;;;;;3.75;2.67;;;;;;;29.73;29.09;94864.66;5091429;28;20029;-83
2022/08/08 10:17:51;;;;;;;8.93;2.83;;;;;;;29.76;28.63;94851.59;5091921;28;20616;-83
2022/08/08 10:20:16;;;;;;;5.88;2.70;;;;;;;29.96;29.63;94872.47;5090235;28;20425;-82
2022/08/08 10:22:59;;;;;;;3.40;2.65;;;;;;;29.88;27.39;94853.34;5090315;28;20028;-83
2022/08/08 10:25:24;;;;;;;5.53;2.38;;;;;;;30.01;28.32;94888.63;5089915;28;20059;-83
2022/08/08 10:27:51;;;;;;;4.47;2.50;;;;;;;29.91;27.82;94860.88;5090642;28;20494;-83
2022/08/08 10:30:17;;;;;;;5.57;2.40;;;;;;;29.55;27.97;94845.09;5090532;28;20138;-83
2022/08/08 10:32:57;;;;;;;4.20;2.17;;;;;;;29.17;28.49;94854.66;5091674;28;20067;-82
2022/08/08 10:35:27;;;;;;;;;;;;;;;29.26;28.06;94881.81;5091974;28;20035;-82
2022/08/08 10:37:59;;;;;;;4.80;2.40;;;;;;;29.21;28.79;94879.06;5090140;28;20022;-83
2022/08/08 10:40:26;;;;;;;6.00;2.30;;;;;;;29.28;30.10;94881.56;5091878;28;20347;-83
2022/08/08 10:43:00;;;;;;;5.00;2.30;;;;;;;29.09;29.44;94831.00;5091681;28;20046;-83
2022/08/08 10:45:25;;;;;;;5.00;2.22;;;;;;;29.18;29.20;94836.75;5091785;28;20023;-83
2022/08/08 10:47:55;;;;;;;6.45;2.50;;;;;;;29.27;27.12;94843.31;5090481;28;20413;-83
2022/08/08 10:50:20;;;;;;;5.35;2.20;;;;;;;29.34;28.87;94827.91;5090874;28;20027;-82
2022/08/08 10:52:46;;;;;;;3.17;2.22;;;;;;;29.52;29.33;94842.91;5091132;28;20066;-83
2022/08/08 10:55:17;;;;;;;3.88;2.25;;;;;;;29.52;28.09;94831.38;5091091;28;20024;-82
2022/08/08 10:57:46;;;;;;;4.68;2.28;;;;;;;29.43;27.65;94822.16;5090210;28;20081;-83
2022/08/08 11:00:13;;;;;;;4.82;2.10;;;;;;;29.60;27.62;94849.72;5090923;28;20054;-82
2022/08/08 11:02:39;;;;;;;5.32;2.00;;;;;;;29.74;27.43;94853.69;5090120;28;20039;-83
2022/08/08 11:05:09;;;;;;;3.80;2.20;;;;;;;29.66;26.47;94822.00;5091631;28;20025;-82
2022/08/08 11:07:36;;;;;;;6.03;2.10;;;;;;;29.99;28.97;94853.25;5091213;28;20050;-83
2022/08/08 11:10:05;;;;;;;6.95;2.30;;;;;;;29.94;28.81;94820.22;5091278;28;20028;-82
2022/08/08 11:12:34;;;;;;;5.40;2.28;;;;;;;29.93;26.60;94815.94;5090869;28;20060;-83
2022/08/08 11:15:00;;;;;;;5.43;2.03;;;;;;;29.76;27.31;94811.44;5089492;28;20064;-82
2022/08/08 11:17:30;;;;;;;5.38;2.20;;;;;;;29.80;27.96;94811.75;5093797;28;20032;-83
2022/08/08 11:19:56;;;;;;;3.25;2.28;;;;;;;29.66;28.21;94805.13;5094253;28;20558;-83
2022/08/08 11:22:26;;;;;;;4.68;2.28;;;;;;;29.44;27.70;94821.91;5094815;28;20036;-83
2022/08/08 11:24:52;;;;;;;;;;;;;;;29.52;28.69;94855.47;5095609;28;20107;-82
2022/08/08 11:27:18;;;;;;;6.97;2.13;;;;;;;29.24;28.07;94816.25;5094901;28;19926;-82
2022/08/08 11:29:43;;;;;;;4.63;2.03;;;;;;;29.42;26.97;94844.59;5093620;28;20128;-80
2022/08/08 11:32:09;;;;;;;5.25;2.22;;;;;;;29.46;28.33;94816.31;5093170;28;20137;-83
2022/08/08 11:34:36;;;;;;;3.25;2.47;;;;;;;29.41;29.48;94803.66;5093535;28;20059;-83
2022/08/08 11:37:01;;;;;;;4.30;2.90;;;;;;;29.53;29.94;94830.31;5093698;28;20421;-82
2022/08/08 11:39:27;;;;;;;5.47;3.08;;;;;;;29.43;30.39;94803.44;5093511;28;20035;-82
2022/08/08 11:41:52;;;;;;;5.50;2.72;;;;;;;29.59;30.44;94822.16;5093298;28;20035;-83
2022/08/08 11:44:18;;;;;;;4.72;2.80;;;;;;;29.63;29.29;94822.50;5093240;28;20032;-82
2022/08/08 11:46:44;;;;;;;5.80;2.63;;;;;;;29.39;28.84;94787.03;5093268;28;20060;-82
2022/08/08 11:49:12;;;;;;;4.13;2.33;;;;;;;29.45;27.53;94798.63;5094347;28;20505;-83
2022/08/08 11:51:38;;;;;;;6.35;2.75;;;;;;;29.24;28.81;94797.53;5094618;28;20106;-83
2022/08/08 11:54:05;;;;;;;4.78;3.03;;;;;;;29.09;30.33;94796.25;5092769;28;20078;-82
2022/08/08 11:56:32;;;;;;;6.05;2.95;;;;;;;29.06;29.87;94803.91;5093280;28;20062;-83
2022/08/08 11:59:05;;;;;;;4.47;3.00;;;;;;;28.92;30.29;94793.53;5093468;28;20097;-82
2022/08/08 12:01:31;;;;;;;5.57;2.55;;;;;;;28.99;29.45;94797.91;5094125;28;20063;-82
2022/08/08 12:03:57;;;;;;;5.85;3.38;;;;;;;28.88;30.57;94789.69;5094356;28;20107;-80